Weather at East Templeton Airport [CLOSED]

Public forecast

Using degrees Celsius for public forecast. Weather courtesy of forecast.io.

Closest aviation weather report (METAR) to East Templeton Airport

Closest report is Ottawa / Gatineau Airport, 1.5 nm (2.8 km) NNW. Retrieved 2020/10/24 19:00 UTC (44 minutes ago):

CYND 241900Z 34008KT 15SM BKN042 07/M01 A3009 RMK SC7 SLP193

Closest aviation forecast (TAF) to East Templeton Airport

Closest forecast is Ottawa / Gatineau Airport, 1.5 nm (2.8 km) NNW. Retrieved 2020/10/24 18:00 UTC (2 hours ago):

TAF CYND 241738Z 2418/2501 33012KT P6SM BKN030 FM250000 34007KT P6SM SCT030 RMK NXT FCST WILL BE ISSUED AT 251245Z